Weather at Madonna di Loreto Airfield

Public forecast

Using degrees Celsius for public forecast. Weather courtesy of forecast.io.

Closest aviation weather report (METAR) to Madonna di Loreto Airfield

Report is more than 6 hours old.

Closest report is Marche Airport, 14.0 nm (25.9 km) NW. Retrieved 2022/09/17 18:50 UTC (9 days ago):

LIPY 171850Z AUTO 27005KT 9999 FEW031/// 13/10 Q1011

Closest aviation forecast (TAF) to Madonna di Loreto Airfield

Forecast is more than 12 hours old.

Closest forecast is Marche Airport, 14.0 nm (25.9 km) NW. Retrieved 2022/09/17 18:23 UTC (9 days ago):

TAF LIPY 171700Z 1718/1818 35010KT 9999 SCT050 PROB30 TEMPO 1718/1721 RA BKN014 BECMG 1722/1724 19007KT